aviador You're here:

SBMO Decoded Metar

MACEIO in BRAZIL
Report Time2018-04-24 18:00:00
UTC Time2018-04-24 18:31:28
Flight Rules mvfr MVFR
Wind140° at 14 kt
W.Decomp.*RWY 12: 10.4 kt HW 9.4 kt RCW
W.Rank140° ranks 6
Current wind is above 140° avg. (9.1)
Visibility9999 m
Phenomena:N/A
Clouds:Broken 020 Hf
Expected CloudBase > 2,800 ft AGL from Temp-Dew spread
Ceiling2,000 ft
Temp29°C (ISA +15)
Dew Point22°C (66% RH)
Heat Index32.0°C
AAT28.7°C
QNH1013 hPa
Density Alt2,418 ft
Elevation377 ft
Report Wrong Elevation
Raw Report
METAR SBMO 241800Z 14014KT 9999 BKN020 29/22 Q1013=

Extra information for SBMO:More info

Metar Taf Metar & Taf Last 4 Metars F.Rules Stats Wind Profile Meteogram Temp Stats Airport Information Weather charts Add Link Nearby VenuesMetar ALERT Operation Metar Decoded Social comments